Denver, Colorado
Current Conditions -  °F | °C
As of 7:58 AM on Thursday 23 Oct 2014 (Local Time) from KBKF Reporting Station
Scattered Clouds Scattered Clouds  
Wind Chill: 39°   Ceiling: Unl
Heat Index: 45°   Visibility: 10mi
Dew Point: 33°   Wind: 10mph
Humidity: 64%   Direction: 190°S
Pressure: 30.19"   Gusts: NA
Location:  39.74°N, 104.99°W
Report Text: KBKF 231358Z 19009KT 10SM FEW110 SCT220 07/01 A3019 RMK AO2A SLP194 T00710008
Loading
Personal Weather Stations






























Interactive Weather Map New forecast layout! Learn more

10-Day Weather Forecast

Advertisements
Track Severe Weather on mobile